Flugplatz Herrenteich

Für EDEH sind keine METAR/TAF Berichte vorhanden.
Es werden die Flugwettermeldungen vom Flugplatz Mannheim-City in 14 km Entfernung angezeigt.

Bericht für EDFM

vom 18.09. um 21:50 UTC

Wind 6 kt aus 100°

Sichtweite 10 km oder mehr

gute Sicht, keine Wolken < 5000 ft, keine CB, keine Wettererscheinungen (CAVOK)

Temperatur 20.0°C

Taupunkt 7.0°C

Luftfeuchtigkeit 43%

Luftdruck 1021 hPa

EDFM 182150Z 10006KT 080V140 CAVOK 20/07 Q1021
Keine Prognose (TAF) verfügbar.
Impressum